Atago — JD3488 — position and weather

sailwx.info

Track history (hours):
 
Tides and Currents Weather Stations Pressure Air Temp Water Temp Dewpoint Dewpoint Depression Visibility Wind Speed Wind Dir Waves Ship Positions

Atago

Last reported at 2017-Nov-19 11:10 UTC. Time now 2017-Nov-19 21:54 UTC.
Position N 34°38' E 135°29'.

Length 61 m; draft 3.4 m.

Type: Tanker. MMSI: 431004325.

Date/timePositionNaut miles runAvg speedWind from/ knotsBaromVisibWave heightAir tempDewpointWater temp
2017-Nov-19 11:10N 34°38' E 135°29'0 0.0
2017-Nov-19 11:00N 34°38' E 135°29'0 0.0
2017-Nov-19 10:27N 34°39' E 135°29'0 0.0
2017-Nov-19 09:59N 34°38' E 135°29'0 0.0
2017-Nov-19 00:51N 34°38' E 135°29'0 0.0
2017-Nov-19 00:30N 34°39' E 135°29'0 0.0
2017-Nov-18 23:59N 34°38' E 135°29'0 0.1
2017-Nov-18 23:30N 34°38' E 135°29'0 0.1
2017-Nov-18 23:00N 34°38' E 135°29'0 0.0
2017-Nov-18 22:30N 34°38' E 135°29'0 0.0
2017-Nov-18 22:00N 34°39' E 135°29'0 0.0
2017-Nov-18 21:30N 34°39' E 135°29'0 0.0
2017-Nov-18 21:00N 34°39' E 135°29'0 0.0
2017-Nov-18 20:24N 34°38' E 135°29'0 0.0
2017-Nov-18 11:02N 34°39' E 135°29'0 0.7
2017-Nov-18 10:58N 34°38' E 135°29'0 0.1
2017-Nov-18 10:22N 34°38' E 135°29'0 0.0
2017-Nov-18 09:53N 34°39' E 135°29'0 0.0
2017-Nov-18 05:33N 34°38' E 135°29'0 3.7
2017-Nov-18 05:26N 34°38' E 135°29'4 9.0
2017-Nov-18 05:00N 34°38' E 135°24'611.5
2017-Nov-18 04:30N 34°39' E 135°17'4 7.5
2017-Nov-18 04:00N 34°42' E 135°15'0 0.0
2017-Nov-18 03:30N 34°42' E 135°15'0 0.0
2017-Nov-18 03:00N 34°42' E 135°15'0 0.0
2017-Nov-18 02:30N 34°42' E 135°15'0 0.0
2017-Nov-18 02:00N 34°42' E 135°15'0 0.0
2017-Nov-18 01:30N 34°42' E 135°15'0 0.0
2017-Nov-18 01:00N 34°42' E 135°15'0 0.0
2017-Nov-18 00:30N 34°42' E 135°15'0 0.0
2017-Nov-18 00:00N 34°42' E 135°15'0 0.0
2017-Nov-17 23:30N 34°42' E 135°15'0 0.0
2017-Nov-17 23:00N 34°42' E 135°15'1 2.1
2017-Nov-17 22:30N 34°41' E 135°15'4 9.0
2017-Nov-17 22:00N 34°37' E 135°18'0 0.1
2017-Nov-17 21:30N 34°37' E 135°18'0 0.0
2017-Nov-17 21:00N 34°37' E 135°18'0 0.0
2017-Nov-17 20:30N 34°37' E 135°18'0 0.0
2017-Nov-17 20:00N 34°37' E 135°18'0 0.0
2017-Nov-17 19:30N 34°37' E 135°18'0 0.0
2017-Nov-17 19:00N 34°37' E 135°18'0 0.0
2017-Nov-17 18:28N 34°37' E 135°18'0 0.0
2017-Nov-17 18:00N 34°37' E 135°18'0 0.0
2017-Nov-17 17:30N 34°37' E 135°18'0 0.0
2017-Nov-17 17:00N 34°37' E 135°18'0 0.0
2017-Nov-17 16:30N 34°37' E 135°18'0 0.0
2017-Nov-17 16:00N 34°37' E 135°18'0 0.0
2017-Nov-17 15:30N 34°37' E 135°18'0 0.0
2017-Nov-17 14:59N 34°37' E 135°18'0 0.0
2017-Nov-17 14:30N 34°37' E 135°18'0 0.0
2017-Nov-17 14:00N 34°37' E 135°18'0 0.0
2017-Nov-17 13:30N 34°37' E 135°18'0 0.0
2017-Nov-17 13:00N 34°37' E 135°18'0 0.1
2017-Nov-17 12:30N 34°37' E 135°18'5 9.5
2017-Nov-17 12:00N 34°35' E 135°13'611.4
2017-Nov-17 11:29N 34°35' E 135°05'4 9.1
2017-Nov-17 11:00N 34°37' E 135°01'3 0.1
2017-Nov-16 08:38N 34°37' E 134°57'1 8.6
2017-Nov-16 08:30N 34°37' E 134°58'611.7
2017-Nov-16 08:00N 34°36' E 135°05'612.0
2017-Nov-16 07:30N 34°36' E 135°12'611.8
2017-Nov-16 07:00N 34°38' E 135°19'5 9.5
2017-Nov-16 06:29N 34°39' E 135°25'3 0.4
2017-Nov-15 23:30N 34°38' E 135°28'2 4.8
2017-Nov-15 23:00N 34°39' E 135°25'3 6.0
2017-Nov-15 22:30N 34°40' E 135°21'0 0.0
2017-Nov-15 22:00N 34°39' E 135°21'0 0.0
2017-Nov-15 21:30N 34°39' E 135°21'0 0.0
2017-Nov-15 21:00N 34°39' E 135°21'0 0.0
2017-Nov-15 20:30N 34°39' E 135°21'0 0.0
2017-Nov-15 20:00N 34°39' E 135°21'0 0.0
2017-Nov-15 19:30N 34°39' E 135°21'0 0.0
2017-Nov-15 19:00N 34°39' E 135°21'0 0.0
2017-Nov-15 18:30N 34°39' E 135°21'0 0.0
2017-Nov-15 18:00N 34°39' E 135°21'0 0.0
2017-Nov-15 17:30N 34°39' E 135°21'0 0.0
2017-Nov-15 17:00N 34°39' E 135°21'0 0.0
2017-Nov-15 16:30N 34°39' E 135°21'0 0.0
2017-Nov-15 16:00N 34°39' E 135°21'0 0.0
2017-Nov-15 15:30N 34°39' E 135°21'0 0.1
2017-Nov-15 15:00N 34°39' E 135°21'0 0.0
2017-Nov-15 14:30N 34°39' E 135°21'0 0.0
2017-Nov-15 14:00N 34°39' E 135°21'0 0.0
2017-Nov-15 13:30N 34°39' E 135°21'0 0.1
2017-Nov-15 13:00N 34°39' E 135°21'0 0.0
2017-Nov-15 12:30N 34°39' E 135°21'0 0.0
2017-Nov-15 12:00N 34°39' E 135°21'0 0.0
2017-Nov-15 11:30N 34°39' E 135°21'0 0.0
2017-Nov-15 11:00N 34°39' E 135°21'0 0.0
2017-Nov-15 10:30N 34°39' E 135°21'0 0.0
2017-Nov-15 10:00N 34°39' E 135°21'0 0.0
2017-Nov-15 09:30N 34°39' E 135°21'0 0.0
2017-Nov-15 09:00N 34°39' E 135°21'0 0.0
2017-Nov-15 08:30N 34°40' E 135°21'0 0.0
2017-Nov-15 08:00N 34°40' E 135°21'0 0.0
2017-Nov-15 07:30N 34°40' E 135°21'0 0.0
2017-Nov-15 07:00N 34°40' E 135°21'0 0.1
2017-Nov-15 06:30N 34°40' E 135°21'3 6.3
2017-Nov-15 06:00N 34°40' E 135°18'0 0.0
2017-Nov-15 05:30N 34°40' E 135°18'0 0.0
2017-Nov-15 05:00N 34°40' E 135°18'0 0.0
2017-Nov-15 04:30N 34°40' E 135°18'0 0.0
2017-Nov-15 04:00N 34°40' E 135°18'0 0.1
2017-Nov-15 03:30N 34°40' E 135°18'0 0.0
2017-Nov-15 03:00N 34°40' E 135°18'0 0.8
2017-Nov-15 02:30N 34°40' E 135°18'0 0.1
2017-Nov-15 02:00N 34°40' E 135°18'3 6.2
2017-Nov-15 01:30N 34°40' E 135°22'3 5.5
2017-Nov-15 01:00N 34°40' E 135°25'0 0.0
2017-Nov-15 00:30N 34°40' E 135°25'0 0.0
2017-Nov-15 00:00N 34°40' E 135°25'0 0.0
2017-Nov-14 23:30N 34°40' E 135°25'1 1.5
2017-Nov-14 23:00N 34°40' E 135°25'3 6.9
2017-Nov-14 22:30N 34°39' E 135°21'0 0.0
2017-Nov-14 22:00N 34°39' E 135°21'0 0.1
2017-Nov-14 21:30N 34°39' E 135°21'0 0.1
2017-Nov-14 21:00N 34°39' E 135°21'0 0.0
2017-Nov-14 20:30N 34°39' E 135°21'0 0.0
2017-Nov-14 20:00N 34°39' E 135°21'0 0.1
2017-Nov-14 19:30N 34°39' E 135°21'0 0.0
2017-Nov-14 19:00N 34°39' E 135°21'3 5.7
2017-Nov-14 18:30N 34°37' E 135°18'612.1
2017-Nov-14 18:00N 34°36' E 135°11'612.5
2017-Nov-14 17:30N 34°36' E 135°03'612.5
2017-Nov-14 17:00N 34°36' E 134°55'  
Track history (hours):
 
Tides and Currents Weather Stations Pressure Air Temp Water Temp Dewpoint Dewpoint Depression Visibility Wind Speed Wind Dir Waves Ship Positions

Atago

Last reported at 2017-Nov-19 11:10 UTC. Time now 2017-Nov-19 21:54 UTC.
Position N 34°38' E 135°29'.

Length 61 m; draft 3.4 m.

Type: Tanker. MMSI: 431004325.

Date/timePositionNaut miles runAvg speedWind from/ knotsBaromVisibWave heightAir tempDewpointWater temp
2017-Nov-19 11:10N 34°38' E 135°29'0 0.0
2017-Nov-19 11:00N 34°38' E 135°29'0 0.0
2017-Nov-19 10:27N 34°39' E 135°29'0 0.0
2017-Nov-19 09:59N 34°38' E 135°29'0 0.0
2017-Nov-19 00:51N 34°38' E 135°29'0 0.0
2017-Nov-19 00:30N 34°39' E 135°29'0 0.0
2017-Nov-18 23:59N 34°38' E 135°29'0 0.1
2017-Nov-18 23:30N 34°38' E 135°29'0 0.1
2017-Nov-18 23:00N 34°38' E 135°29'0 0.0
2017-Nov-18 22:30N 34°38' E 135°29'0 0.0
2017-Nov-18 22:00N 34°39' E 135°29'0 0.0
2017-Nov-18 21:30N 34°39' E 135°29'0 0.0
2017-Nov-18 21:00N 34°39' E 135°29'0 0.0
2017-Nov-18 20:24N 34°38' E 135°29'0 0.0
2017-Nov-18 11:02N 34°39' E 135°29'0 0.7
2017-Nov-18 10:58N 34°38' E 135°29'0 0.1
2017-Nov-18 10:22N 34°38' E 135°29'0 0.0
2017-Nov-18 09:53N 34°39' E 135°29'0 0.0
2017-Nov-18 05:33N 34°38' E 135°29'0 3.7
2017-Nov-18 05:26N 34°38' E 135°29'4 9.0
2017-Nov-18 05:00N 34°38' E 135°24'611.5
2017-Nov-18 04:30N 34°39' E 135°17'4 7.5
2017-Nov-18 04:00N 34°42' E 135°15'0 0.0
2017-Nov-18 03:30N 34°42' E 135°15'0 0.0
2017-Nov-18 03:00N 34°42' E 135°15'0 0.0
2017-Nov-18 02:30N 34°42' E 135°15'0 0.0
2017-Nov-18 02:00N 34°42' E 135°15'0 0.0
2017-Nov-18 01:30N 34°42' E 135°15'0 0.0
2017-Nov-18 01:00N 34°42' E 135°15'0 0.0
2017-Nov-18 00:30N 34°42' E 135°15'0 0.0
2017-Nov-18 00:00N 34°42' E 135°15'0 0.0
2017-Nov-17 23:30N 34°42' E 135°15'0 0.0
2017-Nov-17 23:00N 34°42' E 135°15'1 2.1
2017-Nov-17 22:30N 34°41' E 135°15'4 9.0
2017-Nov-17 22:00N 34°37' E 135°18'0 0.1
2017-Nov-17 21:30N 34°37' E 135°18'0 0.0
2017-Nov-17 21:00N 34°37' E 135°18'0 0.0
2017-Nov-17 20:30N 34°37' E 135°18'0 0.0
2017-Nov-17 20:00N 34°37' E 135°18'0 0.0
2017-Nov-17 19:30N 34°37' E 135°18'0 0.0
2017-Nov-17 19:00N 34°37' E 135°18'0 0.0
2017-Nov-17 18:28N 34°37' E 135°18'0 0.0
2017-Nov-17 18:00N 34°37' E 135°18'0 0.0
2017-Nov-17 17:30N 34°37' E 135°18'0 0.0
2017-Nov-17 17:00N 34°37' E 135°18'0 0.0
2017-Nov-17 16:30N 34°37' E 135°18'0 0.0
2017-Nov-17 16:00N 34°37' E 135°18'0 0.0
2017-Nov-17 15:30N 34°37' E 135°18'0 0.0
2017-Nov-17 14:59N 34°37' E 135°18'0 0.0
2017-Nov-17 14:30N 34°37' E 135°18'0 0.0
2017-Nov-17 14:00N 34°37' E 135°18'0 0.0
2017-Nov-17 13:30N 34°37' E 135°18'0 0.0
2017-Nov-17 13:00N 34°37' E 135°18'0 0.1
2017-Nov-17 12:30N 34°37' E 135°18'5 9.5
2017-Nov-17 12:00N 34°35' E 135°13'611.4
2017-Nov-17 11:29N 34°35' E 135°05'4 9.1
2017-Nov-17 11:00N 34°37' E 135°01'3 0.1
2017-Nov-16 08:38N 34°37' E 134°57'1 8.6
2017-Nov-16 08:30N 34°37' E 134°58'611.7
2017-Nov-16 08:00N 34°36' E 135°05'612.0
2017-Nov-16 07:30N 34°36' E 135°12'611.8
2017-Nov-16 07:00N 34°38' E 135°19'5 9.5
2017-Nov-16 06:29N 34°39' E 135°25'3 0.4
2017-Nov-15 23:30N 34°38' E 135°28'2 4.8
2017-Nov-15 23:00N 34°39' E 135°25'3 6.0
2017-Nov-15 22:30N 34°40' E 135°21'0 0.0
2017-Nov-15 22:00N 34°39' E 135°21'0 0.0
2017-Nov-15 21:30N 34°39' E 135°21'0 0.0
2017-Nov-15 21:00N 34°39' E 135°21'0 0.0
2017-Nov-15 20:30N 34°39' E 135°21'0 0.0
2017-Nov-15 20:00N 34°39' E 135°21'0 0.0
2017-Nov-15 19:30N 34°39' E 135°21'0 0.0
2017-Nov-15 19:00N 34°39' E 135°21'0 0.0
2017-Nov-15 18:30N 34°39' E 135°21'0 0.0
2017-Nov-15 18:00N 34°39' E 135°21'0 0.0
2017-Nov-15 17:30N 34°39' E 135°21'0 0.0
2017-Nov-15 17:00N 34°39' E 135°21'0 0.0
2017-Nov-15 16:30N 34°39' E 135°21'0 0.0
2017-Nov-15 16:00N 34°39' E 135°21'0 0.0
2017-Nov-15 15:30N 34°39' E 135°21'0 0.1
2017-Nov-15 15:00N 34°39' E 135°21'0 0.0
2017-Nov-15 14:30N 34°39' E 135°21'0 0.0
2017-Nov-15 14:00N 34°39' E 135°21'0 0.0
2017-Nov-15 13:30N 34°39' E 135°21'0 0.1
2017-Nov-15 13:00N 34°39' E 135°21'0 0.0
2017-Nov-15 12:30N 34°39' E 135°21'0 0.0
2017-Nov-15 12:00N 34°39' E 135°21'0 0.0
2017-Nov-15 11:30N 34°39' E 135°21'0 0.0
2017-Nov-15 11:00N 34°39' E 135°21'0 0.0
2017-Nov-15 10:30N 34°39' E 135°21'0 0.0
2017-Nov-15 10:00N 34°39' E 135°21'0 0.0
2017-Nov-15 09:30N 34°39' E 135°21'0 0.0
2017-Nov-15 09:00N 34°39' E 135°21'0 0.0
2017-Nov-15 08:30N 34°40' E 135°21'0 0.0
2017-Nov-15 08:00N 34°40' E 135°21'0 0.0
2017-Nov-15 07:30N 34°40' E 135°21'0 0.0
2017-Nov-15 07:00N 34°40' E 135°21'0 0.1
2017-Nov-15 06:30N 34°40' E 135°21'3 6.3
2017-Nov-15 06:00N 34°40' E 135°18'0 0.0
2017-Nov-15 05:30N 34°40' E 135°18'0 0.0
2017-Nov-15 05:00N 34°40' E 135°18'0 0.0
2017-Nov-15 04:30N 34°40' E 135°18'0 0.0
2017-Nov-15 04:00N 34°40' E 135°18'0 0.1
2017-Nov-15 03:30N 34°40' E 135°18'0 0.0
2017-Nov-15 03:00N 34°40' E 135°18'0 0.8
2017-Nov-15 02:30N 34°40' E 135°18'0 0.1
2017-Nov-15 02:00N 34°40' E 135°18'3 6.2
2017-Nov-15 01:30N 34°40' E 135°22'3 5.5
2017-Nov-15 01:00N 34°40' E 135°25'0 0.0
2017-Nov-15 00:30N 34°40' E 135°25'0 0.0
2017-Nov-15 00:00N 34°40' E 135°25'0 0.0
2017-Nov-14 23:30N 34°40' E 135°25'1 1.5
2017-Nov-14 23:00N 34°40' E 135°25'3 6.9
2017-Nov-14 22:30N 34°39' E 135°21'0 0.0
2017-Nov-14 22:00N 34°39' E 135°21'0 0.1
2017-Nov-14 21:30N 34°39' E 135°21'0 0.1
2017-Nov-14 21:00N 34°39' E 135°21'0 0.0
2017-Nov-14 20:30N 34°39' E 135°21'0 0.0
2017-Nov-14 20:00N 34°39' E 135°21'0 0.1
2017-Nov-14 19:30N 34°39' E 135°21'0 0.0
2017-Nov-14 19:00N 34°39' E 135°21'3 5.7
2017-Nov-14 18:30N 34°37' E 135°18'612.1
2017-Nov-14 18:00N 34°36' E 135°11'612.5
2017-Nov-14 17:30N 34°36' E 135°03'612.5
2017-Nov-14 17:00N 34°36' E 134°55'  

Dump ship's entire track history